Junction City, Wisconsin
Current Conditions -  °F | °C
As of 3:35 AM on Sunday 23 Nov 2014 (Local Time) from KSTE Reporting Station
Drizzle Drizzle  
Wind Chill: 39°   Ceiling: 300
Heat Index: 44°   Visibility: 1.2mi
Dew Point: 44°   Wind: 8mph
Humidity: 100%   Direction: 180°S
Pressure: 29.61"   Gusts: NA
Location:  44.59°N, 89.77°W
Report Text: KSTE 230935Z AUTO 18007KT 1 1/4SM -DZ OVC003 07/07 A2961 RMK AO2 T00650065
Loading
Personal Weather Stations






























Interactive Weather Map New forecast layout! Learn more

10-Day Weather Forecast

Advertisements
Track Severe Weather on mobile